Wheatley, Kentucky
Current Conditions -  °F | °C
As of 10:53 PM on Sunday 21 Dec 2014 (Local Time) from KFFT Reporting Station
Clear Clear  
Wind Chill: 25°   Ceiling: Unl
Heat Index: 30°   Visibility: 9mi
Dew Point: 25°   Wind: 5mph
Humidity: 82%   Direction: 60°ENE
Pressure: 30.09"   Gusts: NA
Location:  38.4804°N, 84.8067°W
Report Text: KFFT 220353Z AUTO 06004KT 9SM CLR M01/M04 A3009 RMK AO2 SLP197 T10111039
Loading
Personal Weather Stations






























Interactive Weather Map New forecast layout! Learn more

10-Day Weather Forecast

Advertisements
Track Severe Weather on mobile